createdAt,value
2019-04-30T00:00:18.311Z,58.23
2019-04-30T00:03:39.073Z,58.60
2019-04-30T00:06:41.142Z,62.73
2019-04-30T00:09:44.959Z,59.30
2019-04-30T00:12:47.260Z,57.27
2019-04-30T00:15:52.807Z,59.77
2019-04-30T00:18:59.875Z,57.50
2019-04-30T00:22:00.360Z,59.07
2019-04-30T00:25:00.746Z,58.20
2019-04-30T00:28:07.230Z,57.53
2019-04-30T00:31:06.631Z,56.57
2019-04-30T00:34:08.686Z,58.33
2019-04-30T00:37:14.002Z,56.50
2019-04-30T00:40:15.375Z,55.67
2019-04-30T00:43:17.473Z,52.73
2019-04-30T00:46:25.306Z,52.63
2019-04-30T00:49:27.293Z,54.17
2019-04-30T00:52:33.848Z,50.73
2019-04-30T00:55:38.147Z,54.37
2019-04-30T00:58:39.459Z,55.77
2019-04-30T01:01:48.096Z,52.60
2019-04-30T01:04:51.654Z,53.37
2019-04-30T01:07:55.013Z,55.50
2019-04-30T01:10:59.791Z,55.17
2019-04-30T01:14:00.886Z,56.43
2019-04-30T01:17:03.861Z,59.47
2019-04-30T01:20:09.395Z,55.43
2019-04-30T01:23:14.740Z,56.93
2019-04-30T01:26:18.605Z,56.93
2019-04-30T01:29:20.586Z,59.30
2019-04-30T01:32:22.500Z,59.73
2019-04-30T01:35:30.904Z,57.23
2019-04-30T01:38:28.780Z,60.07
2019-04-30T01:41:31.431Z,57.47
2019-04-30T01:44:33.593Z,58.70
2019-04-30T01:47:35.500Z,56.97
2019-04-30T01:50:38.631Z,53.70
2019-04-30T01:53:43.663Z,53.97
2019-04-30T01:56:52.672Z,56.83
2019-04-30T02:00:02.173Z,54.37
2019-04-30T02:03:05.489Z,51.63
2019-04-30T02:06:09.135Z,52.17
2019-04-30T02:09:11.317Z,51.73
2019-04-30T02:12:13.187Z,53.17
2019-04-30T02:15:15.119Z,49.17
2019-04-30T02:18:17.021Z,45.97
2019-04-30T02:21:19.431Z,47.07
2019-04-30T02:24:21.855Z,44.30
2019-04-30T02:27:23.743Z,46.10
2019-04-30T02:30:25.666Z,42.33
2019-04-30T02:33:30.715Z,43.63
2019-04-30T02:36:34.628Z,42.20
2019-04-30T02:39:36.542Z,38.57
2019-04-30T02:42:39.798Z,40.43
2019-04-30T02:45:45.101Z,41.97
2019-04-30T02:48:50.476Z,40.80
2019-04-30T02:51:55.297Z,38.73
2019-04-30T02:54:59.315Z,34.27
2019-04-30T02:58:01.704Z,37.40
2019-04-30T03:01:03.557Z,34.83
2019-04-30T03:04:05.455Z,33.50
2019-04-30T03:07:09.767Z,32.37
2019-04-30T03:10:11.445Z,30.73
2019-04-30T03:13:13.337Z,29.70
2019-04-30T03:16:17.070Z,28.03
2019-04-30T03:19:40.245Z,29.83
2019-04-30T03:22:42.774Z,29.43
2019-04-30T03:25:44.651Z,29.87
2019-04-30T03:28:49.185Z,30.63
2019-04-30T03:31:52.438Z,29.37
2019-04-30T03:34:54.357Z,28.33
2019-04-30T03:37:59.307Z,25.53
2019-04-30T03:41:01.299Z,24.97
2019-04-30T03:44:17.374Z,25.37
2019-04-30T03:47:10.583Z,25.23
2019-04-30T03:50:11.945Z,25.20
2019-04-30T03:53:13.876Z,22.13
2019-04-30T03:56:15.777Z,22.90
2019-04-30T03:59:19.972Z,23.00
2019-04-30T04:02:26.046Z,21.57
2019-04-30T04:05:44.819Z,25.37
2019-04-30T04:08:49.045Z,24.20
2019-04-30T04:11:51.246Z,24.53
2019-04-30T04:14:53.197Z,24.27
2019-04-30T04:17:55.143Z,23.37
2019-04-30T04:21:08.728Z,21.10
2019-04-30T04:24:00.959Z,22.77
2019-04-30T04:27:03.936Z,22.67
2019-04-30T04:30:10.725Z,22.43
2019-04-30T04:33:12.760Z,21.77
2019-04-30T04:36:14.757Z,20.60
2019-04-30T04:39:16.701Z,21.33
2019-04-30T04:42:19.584Z,18.63
2019-04-30T04:45:21.954Z,18.70
2019-04-30T04:48:23.926Z,18.60
2019-04-30T04:51:36.718Z,17.00
2019-04-30T04:54:30.230Z,16.77
2019-04-30T04:57:32.296Z,16.97
2019-04-30T05:00:34.164Z,16.17
2019-04-30T05:03:39.923Z,15.30
2019-04-30T05:06:41.855Z,16.93
2019-04-30T05:09:43.859Z,14.30
2019-04-30T05:12:45.740Z,15.60
2019-04-30T05:15:51.293Z,14.93
2019-04-30T05:18:51.586Z,15.23
2019-04-30T05:21:53.562Z,15.23
2019-04-30T05:24:55.525Z,14.23
2019-04-30T05:27:58.672Z,14.80
2019-04-30T05:31:00.850Z,14.33
2019-04-30T05:34:03.007Z,14.33
2019-04-30T05:37:05.038Z,12.83
2019-04-30T05:40:09.207Z,12.60
2019-04-30T05:43:11.325Z,12.63
2019-04-30T05:46:14.134Z,12.33
2019-04-30T05:49:16.236Z,13.10
2019-04-30T05:52:19.914Z,13.23
2019-04-30T05:55:22.108Z,14.23
2019-04-30T05:58:24.095Z,12.87
2019-04-30T06:01:26.080Z,15.27
2019-04-30T06:04:29.444Z,13.97
2019-04-30T06:07:31.528Z,12.77
2019-04-30T06:10:35.448Z,14.30
2019-04-30T06:13:45.228Z,12.10
2019-04-30T06:17:06.085Z,13.47
2019-04-30T06:20:17.872Z,12.67
2019-04-30T06:23:12.159Z,12.27
2019-04-30T06:26:14.268Z,13.93
2019-04-30T06:29:16.235Z,13.60
2019-04-30T06:32:18.868Z,14.17
2019-04-30T06:35:20.989Z,13.57
2019-04-30T06:38:22.889Z,13.13
2019-04-30T06:41:24.931Z,11.90
2019-04-30T06:44:37.009Z,12.13
2019-04-30T06:47:33.603Z,12.30
2019-04-30T06:50:35.927Z,11.03
2019-04-30T06:53:39.166Z,12.67
2019-04-30T06:56:41.220Z,11.90
2019-04-30T06:59:43.259Z,12.47
2019-04-30T07:02:46.666Z,11.27
2019-04-30T07:05:49.211Z,11.07
2019-04-30T07:09:06.324Z,11.97
2019-04-30T07:12:27.213Z,11.90
2019-04-30T07:15:22.809Z,12.87
2019-04-30T07:18:24.764Z,11.30
2019-04-30T07:21:29.434Z,11.67
2019-04-30T07:24:31.668Z,12.53
2019-04-30T07:27:33.813Z,11.13
2019-04-30T07:30:35.843Z,11.30
2019-04-30T07:33:39.608Z,10.53
2019-04-30T07:36:48.289Z,12.10
2019-04-30T07:39:45.532Z,11.07
2019-04-30T07:42:49.317Z,11.70
2019-04-30T07:45:51.469Z,10.80
2019-04-30T07:48:53.448Z,13.30
2019-04-30T07:51:57.697Z,12.03
2019-04-30T07:55:00.895Z,11.53
2019-04-30T07:58:02.763Z,11.73
2019-04-30T08:01:04.715Z,10.63
2019-04-30T08:04:14.357Z,11.53
2019-04-30T08:07:16.304Z,10.50
2019-04-30T08:10:18.884Z,10.43
2019-04-30T08:13:22.058Z,10.50
2019-04-30T08:16:24.560Z,11.17
2019-04-30T08:19:26.494Z,10.27
2019-04-30T08:22:29.720Z,10.13
2019-04-30T08:25:32.014Z,11.13
2019-04-30T08:28:34.004Z,12.27
2019-04-30T08:31:40.678Z,11.87
2019-04-30T08:34:40.803Z,10.50
2019-04-30T08:37:42.741Z,11.53
2019-04-30T08:40:55.597Z,12.20
2019-04-30T08:43:49.690Z,11.80
2019-04-30T08:46:51.939Z,10.90
2019-04-30T08:49:53.895Z,11.47
2019-04-30T08:52:56.107Z,11.43
2019-04-30T08:55:59.154Z,13.37
2019-04-30T08:59:01.314Z,11.03
2019-04-30T09:02:13.640Z,11.63
2019-04-30T09:05:18.623Z,12.93
2019-04-30T09:08:20.592Z,12.93
2019-04-30T09:11:30.167Z,10.83
2019-04-30T09:14:26.339Z,13.13
2019-04-30T09:17:29.689Z,11.50
2019-04-30T09:20:31.920Z,11.20
2019-04-30T09:23:44.115Z,12.73
2019-04-30T09:26:39.191Z,11.33
2019-04-30T09:30:02.224Z,11.47
2019-04-30T09:33:06.070Z,12.97
2019-04-30T09:36:09.230Z,11.07
2019-04-30T09:39:11.626Z,13.13
2019-04-30T09:42:13.572Z,11.97
2019-04-30T09:45:15.763Z,13.20
2019-04-30T09:48:19.017Z,11.43
2019-04-30T09:51:24.197Z,11.73
2019-04-30T09:54:29.009Z,12.27
2019-04-30T09:57:31.749Z,12.10
2019-04-30T10:00:33.697Z,11.53
2019-04-30T10:03:36.441Z,11.53
2019-04-30T10:06:40.356Z,12.47
2019-04-30T10:09:42.440Z,12.50
2019-04-30T10:12:44.411Z,12.30
2019-04-30T10:15:50.133Z,13.77
2019-04-30T10:18:53.640Z,13.07
2019-04-30T10:21:58.961Z,11.70
2019-04-30T10:25:06.675Z,12.10
2019-04-30T10:28:09.969Z,13.73
2019-04-30T10:31:12.755Z,14.00
2019-04-30T10:34:15.204Z,13.57
2019-04-30T10:37:18.919Z,12.67
2019-04-30T10:40:21.169Z,15.33
2019-04-30T10:43:23.213Z,14.63
2019-04-30T10:46:25.995Z,17.03
2019-04-30T10:49:29.167Z,14.03
2019-04-30T10:52:32.183Z,15.63
2019-04-30T10:55:38.749Z,14.23
2019-04-30T10:58:41.119Z,14.37
2019-04-30T11:01:43.074Z,14.90
2019-04-30T11:04:44.984Z,15.07
2019-04-30T11:07:46.926Z,14.87
2019-04-30T11:10:48.796Z,15.37
2019-04-30T11:13:50.743Z,15.27
2019-04-30T11:16:52.980Z,16.07
2019-04-30T11:19:55.576Z,15.47
2019-04-30T11:22:58.203Z,17.23
2019-04-30T11:26:01.213Z,17.17
2019-04-30T11:29:04.074Z,17.60
2019-04-30T11:32:08.200Z,18.07
2019-04-30T11:35:10.703Z,23.97
2019-04-30T11:38:12.655Z,17.80
2019-04-30T11:41:14.688Z,18.30
2019-04-30T11:44:29.853Z,17.77
2019-04-30T11:47:25.598Z,19.90
2019-04-30T11:50:30.014Z,19.13
2019-04-30T11:53:31.385Z,19.53
2019-04-30T11:56:33.790Z,21.33
2019-04-30T11:59:35.768Z,20.93
2019-04-30T12:02:39.442Z,19.27
2019-04-30T12:05:41.429Z,20.33
2019-04-30T12:09:00.613Z,20.57
2019-04-30T12:12:02.593Z,21.23
2019-04-30T12:15:06.357Z,21.63
2019-04-30T12:18:09.366Z,21.33
2019-04-30T12:21:12.415Z,22.80
2019-04-30T12:24:14.361Z,21.10
2019-04-30T12:27:16.264Z,20.90
2019-04-30T12:30:20.742Z,22.37
2019-04-30T12:33:23.195Z,21.97
2019-04-30T12:36:25.154Z,22.37
2019-04-30T12:39:29.807Z,21.57
2019-04-30T12:42:51.767Z,22.33
2019-04-30T12:46:02.658Z,20.27
2019-04-30T12:49:05.511Z,21.10
2019-04-30T12:52:11.755Z,19.97
2019-04-30T12:55:32.247Z,20.50
2019-04-30T12:58:34.228Z,21.50
2019-04-30T13:01:36.157Z,20.37
2019-04-30T13:04:39.355Z,21.50
2019-04-30T13:07:42.015Z,18.10
2019-04-30T13:10:45.191Z,18.83
2019-04-30T13:13:50.035Z,18.37
2019-04-30T13:16:51.504Z,20.43
2019-04-30T13:19:53.580Z,17.43
2019-04-30T13:22:55.491Z,17.77
2019-04-30T13:25:58.469Z,18.57
2019-04-30T13:29:18.280Z,19.77
2019-04-30T13:32:29.556Z,20.33
2019-04-30T13:35:24.066Z,17.63
2019-04-30T13:38:28.926Z,18.43
2019-04-30T13:41:38.163Z,17.17
2019-04-30T13:44:40.406Z,17.33
2019-04-30T13:47:42.352Z,15.97
2019-04-30T13:50:44.481Z,17.50
2019-04-30T13:53:46.423Z,18.23
2019-04-30T13:56:49.337Z,16.83
2019-04-30T13:59:51.803Z,16.97
2019-04-30T14:03:01.638Z,15.90
2019-04-30T14:06:05.029Z,16.67
2019-04-30T14:09:27.145Z,16.87
2019-04-30T14:12:30.949Z,17.03
2019-04-30T14:15:33.107Z,14.83
2019-04-30T14:18:35.048Z,14.53
2019-04-30T14:21:39.003Z,15.03
2019-04-30T14:24:40.996Z,15.00
2019-04-30T14:27:49.425Z,13.33
2019-04-30T14:30:46.907Z,14.27
2019-04-30T14:33:48.805Z,13.23
2019-04-30T14:36:50.777Z,13.10
2019-04-30T14:39:53.218Z,12.83
2019-04-30T14:43:04.625Z,13.07
2019-04-30T14:46:27.644Z,13.43
2019-04-30T14:49:39.131Z,13.10
2019-04-30T14:52:43.787Z,12.03
2019-04-30T14:55:49.447Z,12.77
2019-04-30T14:59:09.851Z,12.20
2019-04-30T15:02:19.508Z,13.67
2019-04-30T15:05:21.842Z,14.10
2019-04-30T15:08:23.812Z,12.10
2019-04-30T15:11:25.805Z,12.33
2019-04-30T15:14:27.737Z,18.73
2019-04-30T15:17:29.821Z,19.73
2019-04-30T15:20:31.785Z,14.47
2019-04-30T15:23:38.157Z,12.43
2019-04-30T15:26:41.336Z,13.67
2019-04-30T15:29:43.485Z,14.07
2019-04-30T15:32:47.231Z,15.97
2019-04-30T15:35:50.316Z,13.87
2019-04-30T15:39:10.763Z,12.80
2019-04-30T15:42:13.286Z,13.27
2019-04-30T15:45:16.937Z,25.47
2019-04-30T15:48:19.627Z,20.67
2019-04-30T15:51:21.848Z,24.47
2019-04-30T15:54:24.151Z,21.97
2019-04-30T15:57:26.126Z,16.90
2019-04-30T16:00:31.333Z,37.33
2019-04-30T16:03:38.585Z,42.10
2019-04-30T16:06:40.629Z,40.60
2019-04-30T16:09:48.606Z,30.37
2019-04-30T16:13:09.694Z,28.53
2019-04-30T16:16:13.190Z,27.97
2019-04-30T16:19:15.369Z,26.07
2019-04-30T16:22:19.179Z,22.73
2019-04-30T16:25:21.481Z,24.67
2019-04-30T16:28:23.433Z,12.90
2019-04-30T16:31:25.442Z,13.77
2019-04-30T16:34:30.146Z,13.67
2019-04-30T16:37:31.323Z,13.07
2019-04-30T16:40:33.237Z,13.83
2019-04-30T16:43:35.194Z,12.37
2019-04-30T16:46:37.153Z,11.20
2019-04-30T16:49:39.147Z,13.13
2019-04-30T16:52:41.089Z,14.97
2019-04-30T16:55:43.274Z,18.43
2019-04-30T16:59:02.335Z,26.40
2019-04-30T17:02:04.706Z,18.40
2019-04-30T17:05:11.255Z,14.23
2019-04-30T17:08:31.435Z,15.03
2019-04-30T17:11:53.201Z,14.57
2019-04-30T17:15:14.001Z,14.23
2019-04-30T17:18:15.908Z,17.73
2019-04-30T17:21:19.703Z,23.30
2019-04-30T17:24:22.714Z,21.83
2019-04-30T17:27:24.774Z,21.77
2019-04-30T17:30:29.327Z,19.37
2019-04-30T17:33:31.592Z,19.43
2019-04-30T17:36:35.003Z,44.57
2019-04-30T17:39:40.851Z,19.83
2019-04-30T17:42:41.122Z,16.87
2019-04-30T17:45:43.795Z,16.23
2019-04-30T17:48:45.728Z,13.03
2019-04-30T17:51:49.135Z,14.03
2019-04-30T17:54:51.295Z,13.50
2019-04-30T17:57:55.033Z,15.13
2019-04-30T18:01:00.666Z,13.03
2019-04-30T18:04:02.668Z,13.93
2019-04-30T18:07:05.149Z,12.47
2019-04-30T18:10:09.154Z,15.53
2019-04-30T18:13:12.406Z,12.23
2019-04-30T18:16:14.380Z,14.20
2019-04-30T18:19:34.571Z,13.73
2019-04-30T18:22:41.510Z,14.90
2019-04-30T18:25:48.166Z,14.50
2019-04-30T18:28:50.353Z,12.87
2019-04-30T18:31:52.302Z,13.20
2019-04-30T18:34:54.393Z,15.10
2019-04-30T18:37:58.649Z,15.90
2019-04-30T18:41:00.767Z,16.53
2019-04-30T18:44:03.935Z,16.60
2019-04-30T18:47:05.891Z,15.83
2019-04-30T18:50:10.231Z,15.43
2019-04-30T18:53:18.539Z,14.33
2019-04-30T18:56:20.726Z,14.73
2019-04-30T18:59:22.859Z,13.60
2019-04-30T19:02:24.799Z,14.43
2019-04-30T19:05:29.362Z,16.87
2019-04-30T19:08:35.273Z,16.37
2019-04-30T19:11:49.390Z,19.63
2019-04-30T19:14:53.897Z,18.83
2019-04-30T19:18:00.496Z,17.43
2019-04-30T19:21:05.654Z,17.73
2019-04-30T19:24:08.641Z,14.70
2019-04-30T19:27:10.938Z,13.57
2019-04-30T19:30:15.132Z,16.93
2019-04-30T19:33:18.781Z,13.60
2019-04-30T19:36:35.104Z,14.53
2019-04-30T19:39:26.752Z,12.93
2019-04-30T19:42:29.770Z,12.87
2019-04-30T19:45:39.292Z,12.93
2019-04-30T19:48:44.436Z,12.53
2019-04-30T19:51:46.767Z,12.33
2019-04-30T19:54:50.895Z,12.13
2019-04-30T19:57:55.274Z,14.27
2019-04-30T20:00:59.421Z,14.80
2019-04-30T20:04:01.388Z,14.90
2019-04-30T20:07:03.436Z,17.13
2019-04-30T20:10:09.069Z,17.47
2019-04-30T20:13:11.737Z,18.53
2019-04-30T20:16:13.688Z,15.47
2019-04-30T20:19:18.144Z,15.00
2019-04-30T20:22:20.440Z,15.53
2019-04-30T20:25:24.346Z,15.90
2019-04-30T20:28:38.526Z,14.93
2019-04-30T20:31:32.377Z,13.50
2019-04-30T20:34:34.317Z,13.90
2019-04-30T20:37:40.965Z,13.07
2019-04-30T20:40:57.036Z,13.87
2019-04-30T20:43:49.433Z,11.60
2019-04-30T20:46:54.283Z,11.37
2019-04-30T20:49:58.688Z,11.43
2019-04-30T20:53:00.609Z,11.70
2019-04-30T20:56:02.649Z,10.73
2019-04-30T20:59:08.086Z,10.77
2019-04-30T21:02:09.414Z,10.53
2019-04-30T21:05:11.763Z,10.90
2019-04-30T21:08:13.747Z,11.63
2019-04-30T21:11:16.944Z,11.73
2019-04-30T21:14:19.390Z,11.87
2019-04-30T21:17:21.501Z,9.00
2019-04-30T21:20:23.485Z,8.63
2019-04-30T21:23:25.444Z,9.23
2019-04-30T21:26:27.424Z,9.80
2019-04-30T21:29:29.654Z,9.10
2019-04-30T21:32:50.542Z,8.03
2019-04-30T21:35:54.329Z,9.40
2019-04-30T21:38:56.400Z,8.60
2019-04-30T21:41:59.426Z,7.23
2019-04-30T21:45:01.622Z,8.83
2019-04-30T21:48:03.589Z,7.40
2019-04-30T21:51:05.518Z,9.20
2019-04-30T21:54:07.520Z,8.07
2019-04-30T21:57:09.431Z,7.00
2019-04-30T22:00:14.931Z,7.83
2019-04-30T22:03:19.698Z,7.77
2019-04-30T22:06:21.864Z,7.37
2019-04-30T22:09:23.851Z,8.20
2019-04-30T22:12:25.794Z,7.10
2019-04-30T22:15:27.884Z,7.83
2019-04-30T22:18:29.872Z,7.67
2019-04-30T22:21:31.914Z,9.97
2019-04-30T22:24:33.913Z,8.93
2019-04-30T22:27:35.829Z,9.50
2019-04-30T22:30:37.832Z,10.77
2019-04-30T22:33:39.877Z,8.93
2019-04-30T22:36:43.628Z,8.37
2019-04-30T22:39:49.555Z,7.60
2019-04-30T22:42:51.474Z,8.50
2019-04-30T22:46:01.274Z,8.20
2019-04-30T22:49:03.322Z,9.13
2019-04-30T22:52:05.354Z,9.37
2019-04-30T22:55:07.530Z,9.37
2019-04-30T22:58:09.519Z,9.57
2019-04-30T23:01:19.722Z,11.60
2019-04-30T23:04:28.147Z,10.43
2019-04-30T23:07:31.175Z,10.53
2019-04-30T23:10:35.954Z,11.23
2019-04-30T23:13:39.071Z,9.67
2019-04-30T23:16:41.280Z,10.50
2019-04-30T23:19:49.347Z,9.97
2019-04-30T23:22:48.498Z,9.87
2019-04-30T23:25:51.515Z,11.47
2019-04-30T23:28:53.525Z,9.60
2019-04-30T23:31:55.420Z,10.67
2019-04-30T23:34:57.437Z,10.23
2019-04-30T23:37:59.339Z,8.67
2019-04-30T23:41:01.321Z,8.63
2019-04-30T23:44:03.545Z,10.27
2019-04-30T23:47:05.566Z,9.17
2019-04-30T23:50:07.478Z,9.37
2019-04-30T23:53:09.675Z,9.53
2019-04-30T23:56:11.623Z,8.77
2019-04-30T23:59:13.508Z,8.93
